Time;durP1;ratioP1;P1;durP2;ratioP2;P2;SDS_P1;SDS_P2;PMS_P1;PMS_P2;Temp;Humidity;BMP_temperature;BMP_pressure;BME280_temperature;BME280_humidity;BME280_pressure;Samples;Min_cycle;Max_cycle;Signal;HPM_P1;HPM_P2
2022/10/26 00:00:26;;;;;;;133.73;64.73;;;;;;;;;;4933326;28;20612;-35
2022/10/26 00:02:56;;;;;;;114.53;59.07;;;;;;;;;;4932462;28;20721;-35
2022/10/26 00:05:22;;;;;;;110.63;59.80;;;;;;;;;;4936865;28;20170;-34
2022/10/26 00:07:49;;;;;;;115.50;60.70;;;;;;;;;;4939131;28;20175;-35
2022/10/26 00:10:15;;;;;;;109.67;59.13;;;;;;;;;;4936848;28;20606;-35
2022/10/26 00:12:41;;;;;;;127.27;62.70;;;;;;;;;;4935696;28;20861;-35
2022/10/26 00:15:08;;;;;;;119.70;61.57;;;;;;;;;;4935905;28;20179;-34
2022/10/26 00:17:34;;;;;;;134.17;66.23;;;;;;;;;;4940670;28;20199;-35
2022/10/26 00:20:01;;;;;;;116.30;60.37;;;;;;;;;;4934540;28;20531;-36
2022/10/26 00:22:27;;;;;;;119.57;60.17;;;;;;;;;;4938261;28;20186;-35
2022/10/26 00:24:53;;;;;;;108.23;56.60;;;;;;;;;;4941822;28;20612;-35
2022/10/26 00:27:19;;;;;;;119.73;61.67;;;;;;;;;;4942913;28;20178;-35
2022/10/26 00:29:45;;;;;;;112.00;58.23;;;;;;;;;;4939677;28;20191;-35
2022/10/26 00:32:11;;;;;;;120.97;62.17;;;;;;;;;;4936904;28;20273;-35
2022/10/26 00:34:37;;;;;;;113.60;59.80;;;;;;;;;;4939495;28;20209;-35
2022/10/26 00:37:03;;;;;;;102.40;57.27;;;;;;;;;;4942984;28;20563;-35
2022/10/26 00:39:29;;;;;;;109.47;57.53;;;;;;;;;;4938272;28;20609;-36
2022/10/26 00:41:55;;;;;;;114.90;59.03;;;;;;;;;;4942155;28;20178;-35
2022/10/26 00:44:40;;;;;;;116.23;57.97;;;;;;;;;;4943257;28;20616;-35
2022/10/26 00:47:09;;;;;;;110.17;59.13;;;;;;;;;;4942289;28;20299;-35
2022/10/26 00:49:35;;;;;;;103.77;57.33;;;;;;;;;;4939457;28;20183;-34
2022/10/26 00:52:01;;;;;;;116.67;57.60;;;;;;;;;;4942811;28;20569;-35
2022/10/26 00:54:27;;;;;;;101.30;55.30;;;;;;;;;;4941489;28;20971;-35
2022/10/26 00:56:54;;;;;;;96.90;50.73;;;;;;;;;;4940783;28;20214;-35
2022/10/26 00:59:21;;;;;;;89.40;52.10;;;;;;;;;;4937645;28;20254;-35
2022/10/26 01:01:48;;;;;;;91.50;51.07;;;;;;;;;;4937804;28;20179;-35
2022/10/26 01:04:14;;;;;;;94.03;52.03;;;;;;;;;;4938633;28;20414;-35
2022/10/26 01:06:41;;;;;;;91.80;50.30;;;;;;;;;;4942665;28;20194;-35
2022/10/26 01:09:07;;;;;;;86.90;48.40;;;;;;;;;;4936403;28;20591;-34
2022/10/26 01:11:33;;;;;;;90.73;49.67;;;;;;;;;;4935776;28;20591;-34
2022/10/26 01:14:00;;;;;;;86.47;48.07;;;;;;;;;;4934532;28;20350;-35
2022/10/26 01:16:26;;;;;;;96.17;49.50;;;;;;;;;;4933271;28;20417;-35
2022/10/26 01:18:52;;;;;;;96.13;50.87;;;;;;;;;;4936276;28;20175;-35
2022/10/26 01:21:37;;;;;;;90.57;50.47;;;;;;;;;;4930528;28;20832;-35
2022/10/26 01:24:09;;;;;;;85.00;47.20;;;;;;;;;;4934487;28;20437;-35
2022/10/26 01:26:47;;;;;;;89.10;47.63;;;;;;;;;;4933813;28;20206;-35
2022/10/26 01:29:13;;;;;;;81.43;46.70;;;;;;;;;;4933469;28;20293;-36
2022/10/26 01:31:41;;;;;;;81.70;46.90;;;;;;;;;;4931561;28;20185;-36
2022/10/26 01:34:20;;;;;;;85.77;45.43;;;;;;;;;;4935429;28;20175;-35
2022/10/26 01:36:54;;;;;;;90.63;47.47;;;;;;;;;;4936959;28;21039;-35
2022/10/26 01:39:20;;;;;;;80.00;45.40;;;;;;;;;;4937490;28;20981;-35
2022/10/26 01:41:50;;;;;;;91.77;47.33;;;;;;;;;;4935524;28;20191;-36
2022/10/26 01:44:27;;;;;;;93.57;49.80;;;;;;;;;;4933107;28;20739;-35
2022/10/26 01:46:54;;;;;;;94.27;50.60;;;;;;;;;;4939121;28;20182;-36
2022/10/26 01:49:22;;;;;;;81.53;48.23;;;;;;;;;;4935499;28;20194;-35
2022/10/26 01:51:49;;;;;;;93.17;51.13;;;;;;;;;;4936726;28;20206;-35
2022/10/26 01:54:15;;;;;;;85.70;48.93;;;;;;;;;;4937996;28;20182;-36
2022/10/26 01:56:46;;;;;;;84.70;46.50;;;;;;;;;;4940616;28;20210;-36
2022/10/26 01:59:21;;;;;;;84.27;47.77;;;;;;;;;;4937561;28;20849;-36
2022/10/26 02:01:47;;;;;;;92.80;50.60;;;;;;;;;;4937681;28;20241;-36
2022/10/26 02:04:16;;;;;;;70.67;42.93;;;;;;;;;;4934809;28;20552;-35
2022/10/26 02:06:42;;;;;;;86.77;48.30;;;;;;;;;;4942622;28;20498;-36
2022/10/26 02:09:17;;;;;;;93.30;51.23;;;;;;;;;;4936632;28;20586;-35
2022/10/26 02:11:45;;;;;;;93.00;50.90;;;;;;;;;;4932760;28;20270;-36
2022/10/26 02:14:20;;;;;;;88.77;49.17;;;;;;;;;;4935123;28;20202;-35
2022/10/26 02:16:49;;;;;;;83.70;48.00;;;;;;;;;;4939682;28;21367;-35
2022/10/26 02:19:22;;;;;;;102.47;53.17;;;;;;;;;;4934921;28;20614;-35
2022/10/26 02:21:51;;;;;;;98.57;52.27;;;;;;;;;;4933643;28;20180;-35
2022/10/26 02:24:18;;;;;;;98.43;54.57;;;;;;;;;;4935675;28;20167;-35
2022/10/26 02:26:46;;;;;;;112.00;54.90;;;;;;;;;;4940371;28;20457;-36
2022/10/26 02:29:15;;;;;;;91.27;52.40;;;;;;;;;;4933733;28;20601;-36
2022/10/26 02:31:42;;;;;;;95.83;51.83;;;;;;;;;;4932620;28;20892;-36
2022/10/26 02:34:11;;;;;;;84.73;50.83;;;;;;;;;;4935635;28;20180;-36
2022/10/26 02:36:41;;;;;;;91.80;52.70;;;;;;;;;;4938810;28;20183;-36
2022/10/26 02:39:07;;;;;;;94.70;52.20;;;;;;;;;;4935375;28;20822;-35
2022/10/26 02:41:34;;;;;;;95.97;52.30;;;;;;;;;;4930138;28;21381;-36
2022/10/26 02:44:06;;;;;;;91.30;48.67;;;;;;;;;;4936623;28;20174;-35
2022/10/26 02:46:32;;;;;;;94.73;51.30;;;;;;;;;;4937675;28;20304;-35
2022/10/26 02:48:59;;;;;;;86.97;50.40;;;;;;;;;;4937216;28;20784;-36
2022/10/26 02:51:25;;;;;;;80.17;48.10;;;;;;;;;;4938120;28;20174;-35
2022/10/26 02:53:51;;;;;;;88.20;49.83;;;;;;;;;;4938244;28;20453;-36
2022/10/26 02:56:22;;;;;;;94.93;51.43;;;;;;;;;;4941522;28;20187;-35
2022/10/26 02:58:51;;;;;;;107.20;54.13;;;;;;;;;;4939036;28;20206;-35
2022/10/26 03:01:17;;;;;;;93.90;51.50;;;;;;;;;;4937563;28;20289;-35
2022/10/26 03:03:43;;;;;;;93.07;50.20;;;;;;;;;;4938945;28;20277;-35
2022/10/26 03:06:09;;;;;;;94.80;52.00;;;;;;;;;;4942494;28;21068;-35
2022/10/26 03:08:35;;;;;;;86.97;48.67;;;;;;;;;;4937758;28;20182;-36
2022/10/26 03:11:02;;;;;;;84.67;49.50;;;;;;;;;;4932571;28;20273;-36
2022/10/26 03:13:28;;;;;;;100.23;53.40;;;;;;;;;;4933346;28;20349;-36
2022/10/26 03:15:57;;;;;;;89.53;50.27;;;;;;;;;;4940371;28;20643;-35
2022/10/26 03:18:23;;;;;;;86.67;49.70;;;;;;;;;;4928570;28;20793;-35
2022/10/26 03:20:49;;;;;;;102.53;53.47;;;;;;;;;;4934039;28;20170;-35
2022/10/26 03:23:15;;;;;;;95.27;51.23;;;;;;;;;;4937875;28;20580;-35
2022/10/26 03:25:41;;;;;;;79.90;47.83;;;;;;;;;;4933263;28;20175;-35
2022/10/26 03:28:07;;;;;;;103.67;53.60;;;;;;;;;;4934093;28;20194;-35
2022/10/26 03:30:33;;;;;;;104.63;52.83;;;;;;;;;;4941398;28;20181;-36
2022/10/26 03:32:59;;;;;;;96.03;51.97;;;;;;;;;;4940072;28;20539;-36
2022/10/26 03:35:25;;;;;;;83.60;48.30;;;;;;;;;;4937118;28;20773;-35
2022/10/26 03:37:51;;;;;;;83.40;47.77;;;;;;;;;;4937149;28;20206;-35
2022/10/26 03:40:17;;;;;;;79.90;46.80;;;;;;;;;;4933311;28;20596;-35
2022/10/26 03:42:43;;;;;;;88.00;48.77;;;;;;;;;;4938806;28;20198;-35
2022/10/26 03:45:10;;;;;;;82.00;47.53;;;;;;;;;;4932902;28;20198;-35
2022/10/26 03:47:46;;;;;;;80.43;46.97;;;;;;;;;;4938785;28;20414;-35
2022/10/26 03:50:13;;;;;;;88.77;50.03;;;;;;;;;;4936149;28;20244;-35
2022/10/26 03:52:39;;;;;;;93.17;50.43;;;;;;;;;;4940890;28;20182;-35
2022/10/26 03:55:05;;;;;;;80.97;47.83;;;;;;;;;;4934214;28;20180;-35
2022/10/26 03:57:31;;;;;;;87.20;48.27;;;;;;;;;;4944143;28;20252;-35
2022/10/26 03:59:57;;;;;;;90.47;48.90;;;;;;;;;;4936273;28;20426;-35
2022/10/26 04:02:24;;;;;;;81.07;47.67;;;;;;;;;;4934064;28;20230;-35
2022/10/26 04:04:50;;;;;;;81.13;46.40;;;;;;;;;;4939108;28;20175;-35
2022/10/26 04:07:16;;;;;;;89.27;46.50;;;;;;;;;;4945422;28;20620;-35
2022/10/26 04:09:42;;;;;;;83.67;45.63;;;;;;;;;;4943684;28;20190;-35
2022/10/26 04:12:08;;;;;;;89.33;46.83;;;;;;;;;;4935600;28;20706;-35
2022/10/26 04:14:34;;;;;;;78.23;44.83;;;;;;;;;;4935875;28;20599;-35
2022/10/26 04:17:00;;;;;;;80.43;45.47;;;;;;;;;;4939505;28;20214;-35
2022/10/26 04:19:26;;;;;;;74.13;44.00;;;;;;;;;;4941553;28;20257;-36
2022/10/26 04:21:52;;;;;;;74.67;44.33;;;;;;;;;;4939377;28;20178;-35
2022/10/26 04:24:18;;;;;;;77.47;45.33;;;;;;;;;;4940464;28;20284;-35
2022/10/26 04:26:44;;;;;;;75.90;44.13;;;;;;;;;;4938613;28;20179;-35
2022/10/26 04:29:12;;;;;;;81.43;46.00;;;;;;;;;;4934930;28;20186;-35
2022/10/26 04:31:40;;;;;;;88.60;47.37;;;;;;;;;;4938579;28;20239;-34
2022/10/26 04:34:06;;;;;;;75.80;45.00;;;;;;;;;;4938495;28;20171;-35
2022/10/26 04:36:33;;;;;;;86.97;48.33;;;;;;;;;;4944289;28;20170;-34
2022/10/26 04:38:59;;;;;;;77.63;44.47;;;;;;;;;;4942600;28;20455;-35
2022/10/26 04:41:25;;;;;;;78.63;44.03;;;;;;;;;;4940800;28;20179;-35
2022/10/26 04:43:51;;;;;;;78.10;45.97;;;;;;;;;;4942717;28;20179;-35
2022/10/26 04:46:17;;;;;;;84.50;47.37;;;;;;;;;;4941385;28;20698;-35
2022/10/26 04:48:43;;;;;;;84.10;47.10;;;;;;;;;;4940991;28;20838;-35
2022/10/26 04:51:09;;;;;;;79.27;45.97;;;;;;;;;;4937888;28;20801;-35
2022/10/26 04:53:35;;;;;;;108.70;52.13;;;;;;;;;;4939009;28;20194;-35
2022/10/26 04:56:02;;;;;;;100.07;50.87;;;;;;;;;;4943002;28;20632;-36
2022/10/26 04:58:28;;;;;;;87.67;47.77;;;;;;;;;;4942027;28;20209;-36
2022/10/26 05:00:54;;;;;;;82.47;46.43;;;;;;;;;;4936588;28;20649;-36
2022/10/26 05:03:20;;;;;;;80.90;47.60;;;;;;;;;;4939841;28;20358;-36
2022/10/26 05:05:46;;;;;;;83.50;47.30;;;;;;;;;;4935577;28;20181;-35
2022/10/26 05:08:13;;;;;;;87.57;49.30;;;;;;;;;;4939509;28;20274;-36
2022/10/26 05:10:39;;;;;;;95.60;49.40;;;;;;;;;;4935723;28;20194;-35
2022/10/26 05:13:05;;;;;;;75.83;45.40;;;;;;;;;;4937869;28;20606;-35
2022/10/26 05:15:31;;;;;;;78.77;44.87;;;;;;;;;;4937150;28;20182;-36
2022/10/26 05:17:58;;;;;;;76.03;42.63;;;;;;;;;;4936378;28;20425;-36
2022/10/26 05:20:28;;;;;;;92.43;49.10;;;;;;;;;;4933714;28;20181;-35
2022/10/26 05:22:55;;;;;;;85.27;46.73;;;;;;;;;;4929373;28;20652;-36
2022/10/26 05:25:21;;;;;;;79.57;44.53;;;;;;;;;;4935737;28;20253;-35
2022/10/26 05:27:47;;;;;;;79.93;44.77;;;;;;;;;;4938718;28;20182;-36
2022/10/26 05:30:13;;;;;;;80.37;44.13;;;;;;;;;;4932490;28;20245;-36
2022/10/26 05:32:39;;;;;;;81.43;47.23;;;;;;;;;;4931461;28;20629;-36
2022/10/26 05:35:06;;;;;;;86.13;46.00;;;;;;;;;;4931030;28;20179;-36
2022/10/26 05:37:32;;;;;;;79.60;45.43;;;;;;;;;;4937815;28;20202;-36
2022/10/26 05:39:58;;;;;;;83.83;47.07;;;;;;;;;;4935228;28;20186;-36
2022/10/26 05:42:24;;;;;;;86.43;48.13;;;;;;;;;;4934985;28;20182;-36
2022/10/26 05:44:50;;;;;;;91.50;47.83;;;;;;;;;;4939448;28;20576;-35
2022/10/26 05:47:16;;;;;;;100.10;51.60;;;;;;;;;;4935537;28;20182;-36
2022/10/26 05:49:42;;;;;;;99.77;53.43;;;;;;;;;;4938327;28;20179;-36
2022/10/26 05:52:08;;;;;;;95.43;51.33;;;;;;;;;;4940119;28;20185;-36
2022/10/26 05:54:34;;;;;;;95.30;52.13;;;;;;;;;;4938958;28;20187;-36
2022/10/26 05:57:01;;;;;;;87.83;48.27;;;;;;;;;;4937229;28;20685;-36
2022/10/26 05:59:27;;;;;;;80.23;45.17;;;;;;;;;;4941526;28;20187;-35
2022/10/26 06:01:56;;;;;;;87.47;46.77;;;;;;;;;;4939491;28;20310;-35
2022/10/26 06:04:30;;;;;;;92.43;48.83;;;;;;;;;;4939390;28;20682;-36
2022/10/26 06:06:57;;;;;;;103.80;51.10;;;;;;;;;;4934762;28;20581;-36
2022/10/26 06:09:23;;;;;;;96.50;50.50;;;;;;;;;;4938183;28;21164;-36
2022/10/26 06:11:49;;;;;;;109.17;53.07;;;;;;;;;;4936893;28;20726;-36
2022/10/26 06:14:15;;;;;;;84.57;48.00;;;;;;;;;;4937949;28;20489;-36
2022/10/26 06:16:44;;;;;;;84.97;46.07;;;;;;;;;;4940561;28;20350;-36
2022/10/26 06:19:29;;;;;;;86.43;48.17;;;;;;;;;;4939502;28;20369;-36
2022/10/26 06:21:55;;;;;;;102.90;52.60;;;;;;;;;;4938986;28;20681;-36
2022/10/26 06:24:21;;;;;;;93.30;49.90;;;;;;;;;;4938032;28;20175;-36
2022/10/26 06:26:47;;;;;;;115.40;55.17;;;;;;;;;;4938485;28;20175;-36
2022/10/26 06:29:32;;;;;;;113.20;55.13;;;;;;;;;;4937464;28;20187;-36
2022/10/26 06:31:58;;;;;;;105.03;53.87;;;;;;;;;;4940005;28;20385;-36
2022/10/26 06:34:29;;;;;;;99.90;54.17;;;;;;;;;;4936581;28;20282;-36
2022/10/26 06:36:57;;;;;;;105.73;54.47;;;;;;;;;;4939234;28;20223;-36
2022/10/26 06:39:24;;;;;;;89.03;51.23;;;;;;;;;;4936740;28;20738;-35
2022/10/26 06:41:50;;;;;;;91.37;49.77;;;;;;;;;;4941335;28;20179;-36
2022/10/26 06:44:24;;;;;;;88.33;50.13;;;;;;;;;;4934611;28;20179;-36
2022/10/26 06:46:54;;;;;;;90.50;48.20;;;;;;;;;;4934205;28;20179;-36
2022/10/26 06:49:29;;;;;;;87.60;49.10;;;;;;;;;;4941061;28;20747;-37
2022/10/26 06:51:58;;;;;;;93.73;49.43;;;;;;;;;;4937785;28;20605;-36
2022/10/26 06:54:28;;;;;;;87.97;48.90;;;;;;;;;;4941991;28;20229;-36
2022/10/26 06:56:54;;;;;;;91.50;48.47;;;;;;;;;;4940125;28;20163;-36
2022/10/26 06:59:47;;;;;;;92.10;46.40;;;;;;;;;;4937725;28;20558;-36
2022/10/26 07:02:13;;;;;;;81.97;46.30;;;;;;;;;;4930282;28;21005;-36
2022/10/26 07:04:40;;;;;;;86.53;47.33;;;;;;;;;;4933746;28;20225;-36
2022/10/26 07:07:06;;;;;;;84.53;46.13;;;;;;;;;;4938741;28;20178;-36
2022/10/26 07:09:32;;;;;;;80.20;43.60;;;;;;;;;;4939880;28;21782;-36
2022/10/26 07:11:58;;;;;;;77.17;43.27;;;;;;;;;;4941652;28;20285;-36
2022/10/26 07:14:24;;;;;;;82.10;44.83;;;;;;;;;;4938323;28;20189;-35
2022/10/26 07:16:50;;;;;;;67.80;42.10;;;;;;;;;;4927332;28;20190;-36
2022/10/26 07:19:16;;;;;;;75.20;42.43;;;;;;;;;;4935663;28;20670;-36
2022/10/26 07:21:42;;;;;;;75.07;40.80;;;;;;;;;;4944063;28;20795;-36
2022/10/26 07:24:09;;;;;;;74.17;40.53;;;;;;;;;;4937236;28;20191;-36
2022/10/26 07:26:35;;;;;;;71.17;40.10;;;;;;;;;;4933132;28;20926;-36
2022/10/26 07:29:01;;;;;;;74.37;40.10;;;;;;;;;;4935573;28;20289;-37
2022/10/26 07:31:27;;;;;;;64.77;38.00;;;;;;;;;;4934678;28;20182;-36
2022/10/26 07:33:53;;;;;;;72.00;37.50;;;;;;;;;;4935253;28;20187;-36
2022/10/26 07:36:19;;;;;;;67.50;37.87;;;;;;;;;;4938629;28;20642;-36
2022/10/26 07:38:45;;;;;;;57.30;35.23;;;;;;;;;;4939665;28;20326;-36
2022/10/26 07:41:13;;;;;;;64.33;36.03;;;;;;;;;;4940181;28;20503;-36
2022/10/26 07:43:39;;;;;;;75.07;36.77;;;;;;;;;;4938423;28;20187;-36
2022/10/26 07:46:05;;;;;;;58.10;34.77;;;;;;;;;;4936033;28;20576;-37
2022/10/26 07:48:31;;;;;;;62.30;34.93;;;;;;;;;;4935694;28;20493;-36
2022/10/26 07:50:57;;;;;;;56.67;34.87;;;;;;;;;;4938661;28;20192;-36
2022/10/26 07:53:23;;;;;;;66.30;37.97;;;;;;;;;;4938987;28;20820;-36
2022/10/26 07:55:53;;;;;;;68.43;39.33;;;;;;;;;;4941075;28;20602;-36
2022/10/26 07:58:22;;;;;;;68.83;37.93;;;;;;;;;;4938965;28;20202;-36
2022/10/26 08:00:49;;;;;;;60.37;34.20;;;;;;;;;;4942917;28;20177;-36
2022/10/26 08:03:15;;;;;;;49.13;29.20;;;;;;;;;;4942958;28;20183;-36
2022/10/26 08:05:41;;;;;;;47.63;30.10;;;;;;;;;;4941262;28;20162;-37
2022/10/26 08:08:07;;;;;;;52.10;31.50;;;;;;;;;;4942536;28;20480;-36
2022/10/26 08:10:33;;;;;;;56.33;30.73;;;;;;;;;;4943837;28;20170;-36
2022/10/26 08:12:59;;;;;;;49.03;30.40;;;;;;;;;;4944901;28;20380;-36
2022/10/26 08:15:25;;;;;;;56.67;31.00;;;;;;;;;;4941315;28;20174;-35
2022/10/26 08:17:51;;;;;;;53.70;31.13;;;;;;;;;;4944409;28;20194;-36
2022/10/26 08:20:17;;;;;;;61.20;33.53;;;;;;;;;;4942922;28;20591;-36
2022/10/26 08:22:43;;;;;;;57.93;34.00;;;;;;;;;;4941374;28;20283;-37
2022/10/26 08:25:09;;;;;;;54.10;32.23;;;;;;;;;;4938876;28;20580;-36
2022/10/26 08:27:36;;;;;;;47.80;30.20;;;;;;;;;;4941784;28;20191;-37
2022/10/26 08:30:02;;;;;;;48.73;28.40;;;;;;;;;;4942266;28;20510;-37
2022/10/26 08:32:28;;;;;;;55.40;32.30;;;;;;;;;;4928269;28;20391;-36
2022/10/26 08:34:54;;;;;;;51.40;31.47;;;;;;;;;;4928777;28;20194;-36
2022/10/26 08:37:21;;;;;;;58.53;33.13;;;;;;;;;;4930873;28;20366;-37
2022/10/26 08:39:47;;;;;;;53.53;30.07;;;;;;;;;;4929932;28;20341;-36
2022/10/26 08:42:16;;;;;;;50.53;28.87;;;;;;;;;;4939031;28;20438;-36
2022/10/26 08:44:47;;;;;;;54.03;30.30;;;;;;;;;;4943708;28;20292;-36
2022/10/26 08:47:13;;;;;;;42.33;25.63;;;;;;;;;;4946888;28;20781;-37
2022/10/26 08:49:51;;;;;;;45.80;28.37;;;;;;;;;;4944753;28;20182;-36
2022/10/26 08:52:20;;;;;;;48.07;29.30;;;;;;;;;;4947477;28;20201;-36
2022/10/26 08:54:52;;;;;;;43.73;26.53;;;;;;;;;;4945967;28;20766;-36
2022/10/26 08:57:23;;;;;;;44.90;27.30;;;;;;;;;;4945440;28;20455;-36
2022/10/26 08:59:55;;;;;;;43.67;25.27;;;;;;;;;;4939131;28;20286;-36
2022/10/26 09:02:23;;;;;;;37.07;22.50;;;;;;;;;;4943975;28;20569;-36
2022/10/26 09:04:49;;;;;;;38.67;22.97;;;;;;;;;;4950384;28;20198;-36
2022/10/26 09:07:23;;;;;;;43.40;23.93;;;;;;;;;;4939980;28;20179;-37
2022/10/26 09:10:01;;;;;;;39.13;22.90;;;;;;;;;;4942468;28;20210;-37
2022/10/26 09:12:43;;;;;;;33.60;20.03;;;;;;;;;;4947960;28;20185;-36
2022/10/26 09:15:18;;;;;;;39.03;21.17;;;;;;;;;;4941766;28;20629;-36
2022/10/26 09:17:53;;;;;;;34.97;20.97;;;;;;;;;;4943192;28;20596;-36
2022/10/26 09:20:38;;;;;;;36.17;22.60;;;;;;;;;;4944649;28;20181;-36
2022/10/26 09:23:07;;;;;;;37.10;21.03;;;;;;;;;;4941325;28;20175;-37
2022/10/26 09:25:38;;;;;;;45.20;22.93;;;;;;;;;;4948690;28;20222;-36
2022/10/26 09:28:07;;;;;;;32.07;20.90;;;;;;;;;;4949403;28;20190;-37
2022/10/26 09:30:34;;;;;;;34.33;20.67;;;;;;;;;;4943161;28;20171;-37
2022/10/26 09:33:03;;;;;;;37.50;18.83;;;;;;;;;;4941613;28;20335;-36
2022/10/26 09:36:08;;;;;;;35.37;18.83;;;;;;;;;;4947252;28;20237;-36
2022/10/26 09:38:39;;;;;;;33.63;17.53;;;;;;;;;;4937305;28;20198;-37
2022/10/26 09:41:10;;;;;;;34.90;19.07;;;;;;;;;;4935844;28;20183;-37
2022/10/26 09:43:42;;;;;;;30.50;17.23;;;;;;;;;;4942913;28;21125;-37
2022/10/26 09:46:14;;;;;;;30.87;19.17;;;;;;;;;;4950398;28;20175;-37
2022/10/26 09:48:59;;;;;;;33.23;18.50;;;;;;;;;;4949461;28;21107;-37
2022/10/26 09:51:26;;;;;;;33.20;18.33;;;;;;;;;;4943469;28;21055;-37
2022/10/26 09:53:53;;;;;;;27.23;16.73;;;;;;;;;;4946571;28;20242;-37
2022/10/26 09:56:19;;;;;;;32.90;18.13;;;;;;;;;;4944129;28;20261;-36
2022/10/26 09:58:52;;;;;;;28.60;16.20;;;;;;;;;;4944715;28;20205;-36
2022/10/26 10:01:21;;;;;;;28.13;15.70;;;;;;;;;;4945552;28;20343;-36
2022/10/26 10:03:48;;;;;;;30.30;15.73;;;;;;;;;;4943630;28;20892;-37
2022/10/26 10:06:14;;;;;;;21.97;14.40;;;;;;;;;;4944028;28;20175;-36
2022/10/26 10:08:41;;;;;;;31.13;14.90;;;;;;;;;;4941046;28;20175;-37
2022/10/26 10:11:07;;;;;;;31.07;15.53;;;;;;;;;;4941360;28;20245;-37
2022/10/26 10:13:37;;;;;;;34.00;15.87;;;;;;;;;;4943921;28;21024;-37
2022/10/26 10:16:06;;;;;;;32.50;17.37;;;;;;;;;;4944503;28;20178;-37
2022/10/26 10:18:33;;;;;;;25.73;16.27;;;;;;;;;;4943101;28;20281;-37
2022/10/26 10:20:59;;;;;;;29.13;18.40;;;;;;;;;;4941223;28;20922;-37
2022/10/26 10:23:27;;;;;;;28.03;17.70;;;;;;;;;;4948144;28;20342;-36
2022/10/26 10:26:10;;;;;;;32.00;17.33;;;;;;;;;;4945655;28;20175;-37
2022/10/26 10:28:36;;;;;;;31.67;17.63;;;;;;;;;;4942566;28;20189;-37
2022/10/26 10:31:17;;;;;;;31.13;18.90;;;;;;;;;;4942621;28;20498;-36
2022/10/26 10:33:44;;;;;;;39.20;17.97;;;;;;;;;;4941385;28;20178;-37
2022/10/26 10:36:14;;;;;;;28.97;17.03;;;;;;;;;;4942098;28;20183;-37
2022/10/26 10:38:41;;;;;;;34.17;18.17;;;;;;;;;;4943426;28;20314;-37
2022/10/26 10:41:15;;;;;;;30.53;18.87;;;;;;;;;;4941524;28;20175;-37
2022/10/26 10:43:49;;;;;;;28.07;18.93;;;;;;;;;;4946708;28;20316;-36
2022/10/26 10:46:19;;;;;;;32.40;17.73;;;;;;;;;;4941118;28;20351;-37
2022/10/26 10:48:46;;;;;;;27.70;17.07;;;;;;;;;;4946157;28;20229;-36
2022/10/26 10:51:18;;;;;;;36.63;19.07;;;;;;;;;;4944771;28;20183;-37
2022/10/26 10:53:47;;;;;;;36.33;18.30;;;;;;;;;;4939789;28;20828;-37
2022/10/26 10:56:31;;;;;;;36.90;18.77;;;;;;;;;;4940816;28;20167;-37
2022/10/26 10:58:57;;;;;;;36.37;17.20;;;;;;;;;;4945119;28;20290;-37
2022/10/26 11:01:27;;;;;;;29.37;15.67;;;;;;;;;;4943625;28;20284;-36
2022/10/26 11:03:59;;;;;;;31.77;15.70;;;;;;;;;;4941488;28;20171;-36
2022/10/26 11:06:27;;;;;;;35.83;14.73;;;;;;;;;;4943424;28;20289;-36
2022/10/26 11:08:59;;;;;;;25.83;13.27;;;;;;;;;;4946882;28;20187;-36
2022/10/26 11:11:29;;;;;;;26.93;14.80;;;;;;;;;;4945372;28;20417;-37
2022/10/26 11:13:57;;;;;;;31.90;15.60;;;;;;;;;;4941306;28;20361;-37
2022/10/26 11:16:27;;;;;;;29.43;15.07;;;;;;;;;;4942375;28;20635;-36
2022/10/26 11:19:02;;;;;;;33.93;16.83;;;;;;;;;;4945716;28;21090;-36
2022/10/26 11:21:29;;;;;;;27.67;15.63;;;;;;;;;;4942007;28;20177;-37
2022/10/26 11:24:13;;;;;;;31.77;17.07;;;;;;;;;;4941137;28;20834;-37
2022/10/26 11:26:39;;;;;;;27.80;16.50;;;;;;;;;;4944299;28;20171;-36
2022/10/26 11:29:11;;;;;;;30.60;15.87;;;;;;;;;;4945255;28;20313;-36
2022/10/26 11:31:50;;;;;;;29.50;16.67;;;;;;;;;;4944372;28;20285;-36
2022/10/26 11:34:22;;;;;;;23.10;13.57;;;;;;;;;;4940097;28;20272;-37
2022/10/26 11:36:51;;;;;;;28.90;13.50;;;;;;;;;;4937676;28;20179;-37
2022/10/26 11:39:25;;;;;;;26.47;14.60;;;;;;;;;;4944857;28;20556;-36
2022/10/26 11:41:55;;;;;;;27.93;13.27;;;;;;;;;;4932309;28;20679;-37
2022/10/26 11:44:27;;;;;;;24.07;13.33;;;;;;;;;;4929042;28;20175;-37
2022/10/26 11:46:54;;;;;;;25.97;12.93;;;;;;;;;;4929246;28;20178;-37
2022/10/26 11:49:23;;;;;;;25.27;12.73;;;;;;;;;;4929793;28;20287;-36
2022/10/26 11:51:52;;;;;;;24.50;12.70;;;;;;;;;;4942905;28;20461;-36
2022/10/26 11:54:28;;;;;;;21.10;11.50;;;;;;;;;;4944518;28;20175;-36
2022/10/26 11:56:55;;;;;;;26.37;12.03;;;;;;;;;;4941383;28;20597;-37
2022/10/26 11:59:26;;;;;;;23.60;11.80;;;;;;;;;;4950084;28;20285;-36
2022/10/26 12:01:55;;;;;;;26.57;11.80;;;;;;;;;;4945565;28;20213;-36
2022/10/26 12:04:23;;;;;;;27.97;11.90;;;;;;;;;;4941639;28;20781;-37
2022/10/26 12:06:50;;;;;;;19.93;10.30;;;;;;;;;;4939384;28;21496;-37
2022/10/26 12:09:19;;;;;;;24.00;10.83;;;;;;;;;;4942769;28;20190;-37
2022/10/26 12:11:48;;;;;;;21.17;9.80;;;;;;;;;;4945510;28;20294;-37
2022/10/26 12:14:23;;;;;;;23.20;10.27;;;;;;;;;;4940548;28;20536;-36
2022/10/26 12:16:49;;;;;;;23.00;10.43;;;;;;;;;;4945856;28;20612;-36
2022/10/26 12:19:26;;;;;;;23.37;9.63;;;;;;;;;;4946556;28;20202;-37
2022/10/26 12:21:53;;;;;;;22.17;9.03;;;;;;;;;;4948795;28;20174;-36
2022/10/26 12:24:25;;;;;;;27.10;9.87;;;;;;;;;;4945723;28;20351;-37
2022/10/26 12:26:53;;;;;;;29.83;10.90;;;;;;;;;;4945935;28;20194;-37
2022/10/26 12:29:28;;;;;;;23.47;9.63;;;;;;;;;;4948151;28;20703;-36
2022/10/26 12:31:55;;;;;;;26.73;9.57;;;;;;;;;;4944846;28;20687;-37
2022/10/26 12:34:25;;;;;;;25.60;10.00;;;;;;;;;;4943451;28;20179;-36
2022/10/26 12:36:57;;;;;;;27.30;10.00;;;;;;;;;;4946401;28;20175;-37
2022/10/26 12:39:34;;;;;;;33.77;9.57;;;;;;;;;;4945811;28;20273;-36
2022/10/26 12:42:06;;;;;;;24.07;9.67;;;;;;;;;;4944981;28;20455;-36
2022/10/26 12:44:40;;;;;;;19.33;9.07;;;;;;;;;;4947998;28;20285;-36
2022/10/26 12:47:06;;;;;;;19.07;8.80;;;;;;;;;;4948297;28;20420;-37
2022/10/26 12:49:51;;;;;;;20.53;8.27;;;;;;;;;;4949093;28;20623;-37
2022/10/26 12:52:19;;;;;;;27.77;9.80;;;;;;;;;;4946571;28;20182;-36
2022/10/26 12:54:51;;;;;;;24.47;9.47;;;;;;;;;;4943165;28;20472;-37
2022/10/26 12:57:41;;;;;;;22.77;9.20;;;;;;;;;;4947918;28;20178;-37
2022/10/26 13:00:12;;;;;;;23.73;10.23;;;;;;;;;;4943967;28;20190;-36
2022/10/26 13:02:50;;;;;;;25.73;9.00;;;;;;;;;;4941012;28;20557;-37
2022/10/26 13:05:29;;;;;;;29.83;8.67;;;;;;;;;;4945339;28;20186;-37
2022/10/26 13:08:22;;;;;;;25.97;8.63;;;;;;;;;;4946249;28;20569;-36
2022/10/26 13:11:12;;;;;;;25.93;8.73;;;;;;;;;;4942196;28;20719;-36
2022/10/26 13:13:39;;;;;;;17.17;8.67;;;;;;;;;;4944219;28;20300;-37
2022/10/26 13:16:09;;;;;;;20.43;8.73;;;;;;;;;;4948898;28;20224;-36
2022/10/26 13:18:41;;;;;;;23.47;7.93;;;;;;;;;;4946291;28;20497;-36
2022/10/26 13:21:11;;;;;;;21.07;7.73;;;;;;;;;;4941704;28;20183;-37
2022/10/26 13:23:39;;;;;;;23.93;8.07;;;;;;;;;;4944487;28;20843;-37
2022/10/26 13:26:16;;;;;;;20.67;7.87;;;;;;;;;;4944868;28;20882;-37
2022/10/26 13:28:42;;;;;;;15.20;6.17;;;;;;;;;;4948799;28;20301;-37
2022/10/26 13:31:23;;;;;;;19.97;7.10;;;;;;;;;;4942331;28;20179;-37
2022/10/26 13:33:51;;;;;;;23.20;7.40;;;;;;;;;;4943928;28;20521;-37
2022/10/26 13:36:23;;;;;;;21.90;7.17;;;;;;;;;;4945618;28;20286;-37
2022/10/26 13:38:49;;;;;;;14.90;6.23;;;;;;;;;;4944323;28;20674;-38
2022/10/26 13:41:22;;;;;;;22.37;6.80;;;;;;;;;;4943928;28;20465;-36
2022/10/26 13:43:48;;;;;;;19.27;7.40;;;;;;;;;;4943874;28;20434;-37
2022/10/26 13:46:23;;;;;;;17.87;6.27;;;;;;;;;;4947949;28;20544;-37
2022/10/26 13:48:50;;;;;;;21.67;7.37;;;;;;;;;;4946977;28;20760;-37
2022/10/26 13:51:16;;;;;;;18.47;6.27;;;;;;;;;;4946988;28;20171;-37
2022/10/26 13:53:54;;;;;;;21.20;7.17;;;;;;;;;;4941791;28;20180;-36
2022/10/26 13:56:26;;;;;;;20.37;7.13;;;;;;;;;;4949983;28;20237;-37
2022/10/26 13:59:08;;;;;;;20.93;7.47;;;;;;;;;;4940512;28;20527;-37
2022/10/26 14:01:34;;;;;;;20.97;7.33;;;;;;;;;;4941843;28;20302;-36
2022/10/26 14:04:14;;;;;;;24.20;7.47;;;;;;;;;;4942202;28;20294;-37
2022/10/26 14:06:41;;;;;;;21.57;7.20;;;;;;;;;;4946105;28;20444;-35
2022/10/26 14:09:15;;;;;;;23.77;7.20;;;;;;;;;;4942184;28;20814;-37
2022/10/26 14:11:47;;;;;;;27.07;7.03;;;;;;;;;;4943342;28;20901;-36
2022/10/26 14:14:16;;;;;;;21.07;7.53;;;;;;;;;;4945239;28;20205;-36
2022/10/26 14:16:45;;;;;;;25.07;7.10;;;;;;;;;;4944910;28;20171;-37
2022/10/26 14:19:16;;;;;;;27.67;7.17;;;;;;;;;;4944332;28;20302;-36
2022/10/26 14:21:48;;;;;;;22.03;6.13;;;;;;;;;;4940369;28;20384;-37
2022/10/26 14:24:21;;;;;;;24.57;7.20;;;;;;;;;;4942692;28;20171;-37
2022/10/26 14:26:47;;;;;;;26.07;7.20;;;;;;;;;;4939968;28;20656;-37